createdAt,value
2018-10-19T00:00:13.941Z,0.00
2018-10-19T00:01:13.954Z,0.00
2018-10-19T00:02:13.980Z,0.00
2018-10-19T00:03:14.029Z,0.00
2018-10-19T00:04:14.039Z,0.00
2018-10-19T00:05:14.091Z,0.00
2018-10-19T00:06:14.059Z,0.00
2018-10-19T00:07:14.108Z,0.00
2018-10-19T00:08:14.124Z,0.00
2018-10-19T00:09:14.224Z,0.00
2018-10-19T00:10:14.160Z,0.00
2018-10-19T00:11:14.261Z,0.00
2018-10-19T00:12:14.185Z,0.00
2018-10-19T00:13:14.214Z,0.00
2018-10-19T00:14:14.227Z,0.00
2018-10-19T00:15:14.328Z,0.00
2018-10-19T00:16:14.275Z,0.00
2018-10-19T00:17:14.381Z,0.00
2018-10-19T00:18:14.326Z,0.00
2018-10-19T00:19:14.333Z,0.00
2018-10-19T00:20:14.364Z,0.00
2018-10-19T00:21:14.431Z,0.00
2018-10-19T00:22:14.437Z,0.00
2018-10-19T00:23:14.476Z,0.00
2018-10-19T00:24:14.441Z,0.00
2018-10-19T00:25:14.462Z,0.00
2018-10-19T00:26:14.481Z,0.00
2018-10-19T00:27:14.555Z,0.00
2018-10-19T00:28:14.525Z,0.00
2018-10-19T00:29:14.565Z,0.00
2018-10-19T00:30:14.573Z,0.00
2018-10-19T00:31:14.587Z,0.00
2018-10-19T00:32:14.604Z,0.00
2018-10-19T00:33:14.676Z,0.00
2018-10-19T00:34:14.650Z,0.00
2018-10-19T00:35:14.750Z,0.00
2018-10-19T00:36:14.685Z,0.00
2018-10-19T00:37:14.716Z,0.00
2018-10-19T00:38:14.727Z,0.00
2018-10-19T00:39:14.810Z,0.00
2018-10-19T00:40:14.773Z,0.00
2018-10-19T00:41:14.862Z,0.00
2018-10-19T00:42:14.819Z,0.00
2018-10-19T00:43:14.838Z,0.00
2018-10-19T00:44:14.920Z,0.00
2018-10-19T00:45:14.945Z,0.00
2018-10-19T00:46:14.904Z,0.00
2018-10-19T00:47:15.034Z,0.00
2018-10-19T00:48:14.943Z,0.00
2018-10-19T00:49:14.957Z,0.00
2018-10-19T00:50:14.984Z,0.00
2018-10-19T00:51:15.109Z,0.00
2018-10-19T00:52:15.024Z,0.00
2018-10-19T00:53:15.132Z,0.00
2018-10-19T00:54:15.067Z,0.00
2018-10-19T00:55:15.089Z,0.00
2018-10-19T00:56:15.114Z,0.00
2018-10-19T00:57:15.277Z,0.00
2018-10-19T00:58:15.146Z,0.00
2018-10-19T00:59:15.281Z,0.00
2018-10-19T01:00:15.190Z,0.00
2018-10-19T01:01:15.218Z,0.00
2018-10-19T01:02:15.223Z,0.00
2018-10-19T01:03:15.390Z,0.00
2018-10-19T01:04:15.276Z,0.00
2018-10-19T01:05:15.424Z,0.00
2018-10-19T01:06:15.318Z,0.00
2018-10-19T01:07:15.327Z,0.00
2018-10-19T01:08:15.350Z,0.00
2018-10-19T01:09:15.449Z,0.00
2018-10-19T01:10:15.409Z,0.00
2018-10-19T01:11:15.508Z,0.00
2018-10-19T01:12:15.444Z,0.00
2018-10-19T01:13:15.462Z,0.00
2018-10-19T01:14:15.476Z,0.00
2018-10-19T01:15:15.560Z,0.00
2018-10-19T01:16:15.522Z,0.00
2018-10-19T01:17:15.593Z,0.00
2018-10-19T01:18:15.566Z,0.00
2018-10-19T01:19:15.582Z,0.00
2018-10-19T01:20:15.614Z,0.00
2018-10-19T01:21:15.674Z,0.00
2018-10-19T01:22:15.645Z,0.00
2018-10-19T01:23:15.757Z,0.00
2018-10-19T01:24:15.688Z,0.00
2018-10-19T01:25:15.771Z,0.00
2018-10-19T01:26:15.741Z,0.00
2018-10-19T01:27:15.795Z,0.00
2018-10-19T01:28:15.771Z,0.00
2018-10-19T01:29:15.792Z,0.00
2018-10-19T01:30:15.805Z,0.00
2018-10-19T01:31:15.884Z,0.00
2018-10-19T01:32:15.853Z,0.00
2018-10-19T01:33:15.941Z,0.00
2018-10-19T01:35:15.968Z,0.00
2018-10-19T01:36:15.968Z,0.00
2018-10-19T01:37:15.959Z,0.00
2018-10-19T01:38:16.010Z,0.00
2018-10-19T01:39:16.111Z,0.00
2018-10-19T01:40:16.023Z,0.00
2018-10-19T01:41:16.097Z,0.00
2018-10-19T01:42:16.069Z,0.00
2018-10-19T01:43:16.082Z,0.00
2018-10-19T01:44:16.094Z,0.00
2018-10-19T01:45:16.225Z,0.00
2018-10-19T01:46:16.155Z,0.00
2018-10-19T01:47:16.154Z,0.00
2018-10-19T01:48:16.180Z,0.00
2018-10-19T01:49:16.219Z,0.00
2018-10-19T01:50:16.227Z,0.00
2018-10-19T01:51:16.313Z,0.00
2018-10-19T01:52:16.263Z,0.00
2018-10-19T01:53:16.338Z,0.00
2018-10-19T01:54:16.311Z,0.00
2018-10-19T01:55:16.334Z,0.00
2018-10-19T01:56:16.351Z,0.00
2018-10-19T01:57:16.423Z,0.00
2018-10-19T01:58:16.398Z,0.00
2018-10-19T01:59:16.490Z,0.00
2018-10-19T02:00:16.459Z,0.00
2018-10-19T02:01:16.450Z,0.00
2018-10-19T02:02:16.464Z,0.00
2018-10-19T02:03:16.533Z,0.00
2018-10-19T02:04:16.513Z,0.00
2018-10-19T02:05:16.554Z,0.00
2018-10-19T02:06:16.553Z,0.00
2018-10-19T02:07:16.574Z,0.00
2018-10-19T02:08:16.591Z,0.00
2018-10-19T02:09:16.613Z,0.00
2018-10-19T02:10:16.643Z,0.00
2018-10-19T02:11:16.652Z,0.00
2018-10-19T02:12:16.686Z,0.00
2018-10-19T02:13:16.697Z,0.00
2018-10-19T02:14:16.713Z,0.00
2018-10-19T02:15:16.870Z,0.00
2018-10-19T02:16:16.760Z,0.00
2018-10-19T02:18:16.797Z,0.00
2018-10-19T02:19:16.815Z,0.00
2018-10-19T02:20:16.833Z,0.00
2018-10-19T02:21:16.850Z,0.00
2018-10-19T02:22:16.875Z,0.00
2018-10-19T02:24:16.915Z,0.00
2018-10-19T02:25:16.940Z,0.00
2018-10-19T02:26:16.952Z,0.00
2018-10-19T02:27:17.025Z,0.00
2018-10-19T02:28:17.002Z,0.00
2018-10-19T02:29:17.027Z,0.00
2018-10-19T02:30:17.042Z,0.00
2018-10-19T02:31:17.061Z,0.00
2018-10-19T02:32:17.081Z,0.00
2018-10-19T02:33:17.200Z,0.00
2018-10-19T02:34:17.113Z,0.00
2018-10-19T02:35:17.196Z,0.00
2018-10-19T02:36:17.160Z,0.00
2018-10-19T02:37:17.177Z,0.00
2018-10-19T02:38:17.200Z,0.00
2018-10-19T02:39:17.327Z,0.00
2018-10-19T02:40:17.239Z,0.00
2018-10-19T02:41:17.372Z,0.00
2018-10-19T02:42:17.290Z,0.00
2018-10-19T02:43:17.304Z,0.00
2018-10-19T02:44:17.323Z,0.00
2018-10-19T02:46:17.365Z,0.00
2018-10-19T02:47:17.488Z,0.00
2018-10-19T02:48:17.403Z,0.00
2018-10-19T02:49:17.418Z,0.00
2018-10-19T02:50:17.438Z,0.00
2018-10-19T02:51:17.545Z,0.00
2018-10-19T02:52:17.480Z,0.00
2018-10-19T02:53:17.543Z,0.00
2018-10-19T02:54:17.526Z,0.00
2018-10-19T02:55:17.577Z,0.00
2018-10-19T02:56:17.567Z,0.00
2018-10-19T02:57:17.633Z,0.00
2018-10-19T02:58:17.608Z,0.00
2018-10-19T02:59:17.688Z,0.00
2018-10-19T03:00:17.646Z,0.00
2018-10-19T03:01:17.668Z,0.00
2018-10-19T03:02:17.688Z,0.00
2018-10-19T03:03:17.851Z,0.00
2018-10-19T03:04:17.723Z,0.00
2018-10-19T03:05:17.760Z,0.00
2018-10-19T03:06:17.769Z,0.00
2018-10-19T03:07:17.778Z,0.00
2018-10-19T03:08:17.802Z,0.00
2018-10-19T03:09:17.918Z,0.00
2018-10-19T03:10:17.856Z,0.00
2018-10-19T03:11:17.955Z,0.00
2018-10-19T03:12:17.892Z,0.00
2018-10-19T03:13:17.903Z,0.00
2018-10-19T03:14:17.930Z,0.00
2018-10-19T03:15:18.063Z,0.00
2018-10-19T03:17:17.993Z,0.00
2018-10-19T03:18:18.005Z,0.00
2018-10-19T03:19:18.024Z,0.00
2018-10-19T03:20:18.062Z,0.00
2018-10-19T03:21:18.129Z,0.00
2018-10-19T03:22:18.080Z,0.00
2018-10-19T03:23:18.101Z,0.00
2018-10-19T03:24:18.123Z,0.00
2018-10-19T03:25:18.146Z,0.00
2018-10-19T03:26:18.168Z,0.00
2018-10-19T03:27:18.281Z,0.00
2018-10-19T03:28:18.204Z,0.00
2018-10-19T03:29:18.340Z,0.00
2018-10-19T03:30:18.249Z,0.00
2018-10-19T03:31:18.322Z,0.00
2018-10-19T03:32:18.298Z,0.00
2018-10-19T03:33:18.370Z,0.00
2018-10-19T03:34:18.327Z,0.00
2018-10-19T03:35:18.436Z,0.00
2018-10-19T03:36:18.374Z,0.00
2018-10-19T03:37:18.394Z,0.00
2018-10-19T03:38:18.404Z,0.00
2018-10-19T03:39:18.488Z,0.00
2018-10-19T03:40:18.479Z,0.00
2018-10-19T03:41:18.538Z,0.00
2018-10-19T03:42:18.491Z,0.00
2018-10-19T03:43:18.504Z,0.00
2018-10-19T03:44:18.537Z,0.00
2018-10-19T03:45:18.716Z,0.00
2018-10-19T03:46:18.562Z,0.00
2018-10-19T03:47:18.685Z,0.00
2018-10-19T03:48:18.608Z,0.00
2018-10-19T03:49:18.664Z,0.00
2018-10-19T03:50:18.645Z,0.00
2018-10-19T03:51:18.757Z,0.00
2018-10-19T03:52:18.685Z,0.00
2018-10-19T03:53:18.816Z,0.00
2018-10-19T03:54:18.729Z,0.00
2018-10-19T03:55:18.750Z,0.00
2018-10-19T03:56:18.766Z,0.00
2018-10-19T03:57:18.896Z,0.00
2018-10-19T03:58:18.811Z,0.00
2018-10-19T04:00:18.848Z,0.00
2018-10-19T04:01:18.892Z,0.00
2018-10-19T04:02:18.894Z,0.00
2018-10-19T04:03:19.073Z,0.00
2018-10-19T04:04:18.928Z,0.00
2018-10-19T04:05:18.960Z,0.00
2018-10-19T04:06:18.962Z,0.00
2018-10-19T04:07:18.978Z,0.00
2018-10-19T04:08:19.040Z,0.00
2018-10-19T04:09:19.099Z,0.00
2018-10-19T04:10:19.062Z,0.00
2018-10-19T04:11:19.068Z,0.00
2018-10-19T04:12:19.082Z,0.00
2018-10-19T04:13:19.101Z,0.00
2018-10-19T04:14:19.121Z,0.00
2018-10-19T04:15:19.178Z,0.00
2018-10-19T04:16:19.162Z,0.00
2018-10-19T04:17:19.182Z,0.00
2018-10-19T04:18:19.205Z,0.00
2018-10-19T04:19:19.216Z,0.00
2018-10-19T04:20:19.242Z,0.00
2018-10-19T04:22:19.284Z,0.00
2018-10-19T04:23:19.305Z,0.00
2018-10-19T04:24:19.326Z,0.00
2018-10-19T04:25:19.340Z,0.00
2018-10-19T04:26:19.359Z,0.00
2018-10-19T04:27:19.433Z,0.00
2018-10-19T04:28:19.481Z,0.00
2018-10-19T04:29:19.415Z,0.00
2018-10-19T04:30:19.435Z,0.00
2018-10-19T04:31:19.457Z,0.00
2018-10-19T04:32:19.473Z,0.00
2018-10-19T04:33:19.660Z,0.00
2018-10-19T04:34:19.519Z,0.00
2018-10-19T04:35:19.546Z,0.00
2018-10-19T04:36:19.576Z,0.00
2018-10-19T04:37:19.580Z,0.00
2018-10-19T04:38:19.594Z,0.00
2018-10-19T04:39:19.638Z,0.00
2018-10-19T04:40:19.637Z,0.00
2018-10-19T04:41:19.799Z,0.00
2018-10-19T04:42:19.762Z,0.00
2018-10-19T04:43:19.696Z,0.00
2018-10-19T04:44:19.717Z,0.00
2018-10-19T04:45:19.733Z,0.00
2018-10-19T04:46:19.755Z,0.00
2018-10-19T04:47:19.907Z,0.00
2018-10-19T04:48:19.797Z,0.00
2018-10-19T04:49:19.803Z,0.00
2018-10-19T04:50:19.834Z,0.00
2018-10-19T04:51:19.843Z,0.00
2018-10-19T04:52:19.867Z,0.00
2018-10-19T04:53:19.956Z,0.00
2018-10-19T04:54:19.914Z,0.00
2018-10-19T04:55:19.927Z,0.00
2018-10-19T04:56:19.952Z,0.00
2018-10-19T04:57:20.028Z,0.00
2018-10-19T04:58:19.981Z,0.00
2018-10-19T04:59:19.998Z,0.00
2018-10-19T05:00:20.030Z,0.00
2018-10-19T05:01:20.054Z,0.00
2018-10-19T05:02:20.061Z,0.00
2018-10-19T05:03:20.096Z,0.00
2018-10-19T05:04:20.104Z,0.00
2018-10-19T05:05:20.187Z,0.00
2018-10-19T05:06:20.184Z,0.00
2018-10-19T05:07:20.162Z,0.00
2018-10-19T05:08:20.241Z,0.00
2018-10-19T05:09:20.202Z,0.00
2018-10-19T05:10:20.224Z,0.00
2018-10-19T05:11:20.410Z,0.00
2018-10-19T05:12:20.267Z,0.00
2018-10-19T05:13:20.274Z,0.00
2018-10-19T05:14:20.293Z,0.00
2018-10-19T05:15:20.328Z,0.00
2018-10-19T05:16:20.333Z,0.00
2018-10-19T05:17:20.360Z,0.00
2018-10-19T05:18:20.374Z,0.00
2018-10-19T05:19:20.397Z,0.00
2018-10-19T05:20:20.414Z,0.00
2018-10-19T05:21:20.430Z,0.00
2018-10-19T05:22:20.450Z,0.00
2018-10-19T05:23:20.508Z,0.00
2018-10-19T05:24:20.491Z,0.00
2018-10-19T05:25:20.505Z,0.00
2018-10-19T05:26:20.559Z,0.00
2018-10-19T05:27:20.558Z,0.00
2018-10-19T05:28:20.571Z,0.00
2018-10-19T05:29:20.599Z,0.00
2018-10-19T05:30:20.618Z,0.00
2018-10-19T05:31:20.630Z,0.00
2018-10-19T05:32:20.666Z,0.00
2018-10-19T05:33:20.668Z,0.00
2018-10-19T05:34:20.694Z,0.00
2018-10-19T05:35:20.708Z,0.00
2018-10-19T05:36:20.725Z,0.00
2018-10-19T05:37:20.745Z,0.00
2018-10-19T05:38:20.771Z,0.00
2018-10-19T05:39:20.857Z,0.00
2018-10-19T05:40:20.829Z,0.00
2018-10-19T05:41:20.820Z,0.00
2018-10-19T05:42:20.842Z,0.00
2018-10-19T05:43:20.912Z,0.00
2018-10-19T05:44:20.871Z,0.00
2018-10-19T05:45:20.904Z,0.00
2018-10-19T05:46:20.915Z,0.00
2018-10-19T05:47:20.935Z,0.00
2018-10-19T05:48:20.964Z,0.00
2018-10-19T05:49:20.976Z,0.00
2018-10-19T05:50:20.992Z,0.00
2018-10-19T05:51:21.018Z,0.00
2018-10-19T05:52:21.046Z,0.00
2018-10-19T05:53:21.059Z,0.00
2018-10-19T05:54:21.073Z,0.00
2018-10-19T05:55:21.091Z,0.00
2018-10-19T05:56:21.111Z,0.00
2018-10-19T05:57:21.143Z,0.00
2018-10-19T05:58:21.153Z,0.00
2018-10-19T05:59:21.173Z,0.00
2018-10-19T06:01:21.205Z,0.00
2018-10-19T06:02:21.382Z,0.00
2018-10-19T06:03:21.247Z,0.00
2018-10-19T06:04:21.269Z,0.00
2018-10-19T06:05:21.295Z,0.00
2018-10-19T06:06:21.304Z,0.00
2018-10-19T06:07:21.411Z,0.00
2018-10-19T06:08:21.347Z,0.00
2018-10-19T06:09:21.364Z,0.00
2018-10-19T06:10:21.417Z,0.00
2018-10-19T06:11:21.402Z,0.00
2018-10-19T06:12:21.418Z,0.00
2018-10-19T06:13:21.440Z,0.00
2018-10-19T06:14:21.470Z,0.00
2018-10-19T06:15:21.478Z,0.00
2018-10-19T06:16:21.501Z,0.00
2018-10-19T06:17:21.516Z,0.00
2018-10-19T06:18:21.559Z,0.00
2018-10-19T06:19:21.556Z,0.00
2018-10-19T06:20:21.575Z,0.00
2018-10-19T06:21:21.591Z,0.00
2018-10-19T06:22:21.619Z,0.00
2018-10-19T06:23:21.654Z,0.00
2018-10-19T06:24:21.650Z,0.00
2018-10-19T06:25:21.674Z,0.00
2018-10-19T06:26:21.751Z,0.00
2018-10-19T06:27:21.711Z,0.00
2018-10-19T06:28:21.740Z,0.00
2018-10-19T06:29:21.761Z,0.00
2018-10-19T06:30:21.767Z,0.00
2018-10-19T06:31:21.882Z,0.00
2018-10-19T06:32:21.803Z,0.00
2018-10-19T06:33:21.835Z,0.00
2018-10-19T06:34:21.847Z,0.00
2018-10-19T06:35:21.868Z,0.00
2018-10-19T06:36:21.892Z,0.00
2018-10-19T06:37:21.911Z,0.00
2018-10-19T06:38:21.921Z,0.00
2018-10-19T06:39:21.958Z,0.00
2018-10-19T06:40:21.963Z,0.00
2018-10-19T06:41:21.983Z,0.00
2018-10-19T06:42:22.008Z,0.00
2018-10-19T06:43:22.020Z,0.00
2018-10-19T06:44:22.041Z,0.00
2018-10-19T06:45:22.055Z,0.00
2018-10-19T06:46:22.083Z,0.00
2018-10-19T06:47:22.144Z,0.00
2018-10-19T06:48:22.113Z,0.00
2018-10-19T06:49:22.137Z,0.00
2018-10-19T06:50:22.158Z,0.00
2018-10-19T06:51:22.177Z,0.00
2018-10-19T06:52:22.186Z,0.00
2018-10-19T06:53:22.223Z,0.00
2018-10-19T06:54:22.245Z,0.00
2018-10-19T06:55:22.245Z,0.00
2018-10-19T06:56:22.267Z,0.00
2018-10-19T06:57:22.291Z,0.00
2018-10-19T06:58:22.311Z,0.00
2018-10-19T06:59:22.483Z,0.00
2018-10-19T07:00:22.365Z,0.00
2018-10-19T07:01:22.366Z,0.00
2018-10-19T07:02:22.386Z,0.00
2018-10-19T07:03:22.400Z,0.00
2018-10-19T07:04:22.423Z,0.00
2018-10-19T07:05:22.453Z,0.00
2018-10-19T07:06:22.484Z,0.00
2018-10-19T07:07:22.487Z,0.00
2018-10-19T07:08:22.562Z,0.00
2018-10-19T07:09:22.526Z,0.00
2018-10-19T07:10:22.572Z,0.00
2018-10-19T07:11:22.564Z,0.00
2018-10-19T07:12:22.575Z,0.00
2018-10-19T07:13:22.592Z,0.00
2018-10-19T07:14:22.617Z,0.00
2018-10-19T07:15:22.641Z,0.00
2018-10-19T07:16:22.648Z,0.00
2018-10-19T07:17:22.676Z,0.00
2018-10-19T07:18:22.702Z,0.00
2018-10-19T07:19:22.711Z,0.00
2018-10-19T07:20:22.731Z,0.00
2018-10-19T07:21:22.745Z,0.00
2018-10-19T07:22:22.788Z,0.00
2018-10-19T07:23:22.898Z,0.00
2018-10-19T07:24:22.813Z,0.00
2018-10-19T07:25:22.837Z,0.00
2018-10-19T07:26:22.850Z,0.00
2018-10-19T07:27:22.874Z,0.00
2018-10-19T07:28:22.885Z,0.00
2018-10-19T07:29:22.937Z,0.00
2018-10-19T07:30:22.925Z,0.00
2018-10-19T07:31:22.961Z,0.00
2018-10-19T07:32:22.969Z,0.00
2018-10-19T07:33:22.987Z,0.00
2018-10-19T07:34:23.000Z,0.00
2018-10-19T07:35:23.029Z,5.63
2018-10-19T07:36:23.091Z,5.63
2018-10-19T07:37:23.069Z,5.63
2018-10-19T07:38:23.084Z,5.63
2018-10-19T07:39:23.100Z,5.63
2018-10-19T07:40:23.122Z,5.63
2018-10-19T07:41:23.143Z,5.63
2018-10-19T07:42:23.337Z,5.63
2018-10-19T07:43:23.176Z,5.63
2018-10-19T07:44:23.205Z,5.63
2018-10-19T07:45:23.223Z,5.63
2018-10-19T07:46:23.239Z,5.63
2018-10-19T07:47:23.439Z,5.63
2018-10-19T07:48:23.314Z,5.63
2018-10-19T07:49:23.287Z,5.63
2018-10-19T07:50:23.324Z,5.63
2018-10-19T07:51:23.361Z,5.63
2018-10-19T07:52:23.348Z,5.63
2018-10-19T07:53:23.375Z,5.63
2018-10-19T07:54:23.421Z,5.63
2018-10-19T07:55:23.422Z,5.63
2018-10-19T07:56:23.431Z,5.63
2018-10-19T07:57:23.459Z,5.63
2018-10-19T07:58:23.480Z,5.63
2018-10-19T07:59:23.483Z,5.63
2018-10-19T08:00:23.508Z,5.63
2018-10-19T08:01:23.517Z,5.63
2018-10-19T08:02:23.568Z,5.63
2018-10-19T08:03:23.556Z,5.63
2018-10-19T08:04:23.583Z,5.63
2018-10-19T08:05:23.613Z,5.63
2018-10-19T08:06:23.619Z,5.63
2018-10-19T08:07:23.648Z,5.63
2018-10-19T08:08:23.658Z,5.63
2018-10-19T08:09:23.673Z,5.63
2018-10-19T08:10:23.688Z,5.63
2018-10-19T08:11:23.792Z,5.63
2018-10-19T08:12:23.740Z,5.63
2018-10-19T08:13:23.751Z,5.63
2018-10-19T08:14:23.777Z,5.63
2018-10-19T08:15:23.797Z,5.63
2018-10-19T08:16:23.828Z,5.63
2018-10-19T08:17:23.835Z,5.63
2018-10-19T08:18:23.852Z,11.25
2018-10-19T08:19:23.913Z,5.63
2018-10-19T08:20:23.895Z,5.63
2018-10-19T08:21:23.926Z,5.63
2018-10-19T08:22:23.942Z,5.63
2018-10-19T08:23:23.993Z,11.25
2018-10-19T08:24:23.969Z,11.25
2018-10-19T08:25:23.984Z,11.25
2018-10-19T08:26:24.005Z,11.25
2018-10-19T08:27:24.167Z,11.25
2018-10-19T08:28:24.053Z,5.63
2018-10-19T08:29:24.070Z,5.63
2018-10-19T08:30:24.096Z,5.63
2018-10-19T08:31:24.101Z,5.63
2018-10-19T08:32:24.125Z,11.25
2018-10-19T08:33:24.147Z,11.25
2018-10-19T08:34:24.161Z,11.25
2018-10-19T08:35:24.193Z,11.25
2018-10-19T08:36:24.217Z,11.25
2018-10-19T08:37:24.257Z,11.25
2018-10-19T08:38:24.241Z,11.25
2018-10-19T08:39:24.260Z,11.25
2018-10-19T08:40:24.276Z,11.25
2018-10-19T08:41:24.334Z,11.25
2018-10-19T08:42:24.320Z,11.25
2018-10-19T08:43:24.406Z,11.25
2018-10-19T08:44:24.362Z,11.25
2018-10-19T08:45:24.389Z,11.25
2018-10-19T08:46:24.399Z,11.25
2018-10-19T08:47:24.429Z,11.25
2018-10-19T08:48:24.451Z,11.25
2018-10-19T08:49:24.457Z,11.25
2018-10-19T08:50:24.496Z,11.25
2018-10-19T08:51:24.498Z,11.25
2018-10-19T08:52:24.536Z,11.25
2018-10-19T08:53:24.560Z,11.25
2018-10-19T08:54:24.643Z,16.88
2018-10-19T08:55:24.580Z,16.88
2018-10-19T08:56:24.596Z,16.88
2018-10-19T08:57:24.617Z,16.88
2018-10-19T08:58:24.738Z,16.88
2018-10-19T08:59:24.668Z,16.88
2018-10-19T09:00:24.688Z,16.88
2018-10-19T09:01:24.698Z,16.88
2018-10-19T09:02:24.711Z,16.88
2018-10-19T09:03:24.790Z,16.88
2018-10-19T09:04:24.762Z,16.88
2018-10-19T09:05:24.769Z,16.88
2018-10-19T09:06:24.798Z,16.88
2018-10-19T09:07:24.827Z,16.88
2018-10-19T09:08:24.830Z,16.88
2018-10-19T09:09:24.855Z,16.88
2018-10-19T09:10:24.877Z,16.88
2018-10-19T09:11:24.948Z,5.63
2018-10-19T09:12:24.982Z,5.63
2018-10-19T09:13:24.945Z,11.25
2018-10-19T09:14:24.948Z,11.25
2018-10-19T09:15:24.972Z,11.25
2018-10-19T09:16:24.994Z,11.25
2018-10-19T09:17:25.012Z,11.25
2018-10-19T09:18:25.039Z,11.25
2018-10-19T09:19:25.052Z,11.25
2018-10-19T09:20:25.074Z,11.25
2018-10-19T09:21:25.095Z,11.25
2018-10-19T09:22:25.163Z,11.25
2018-10-19T09:23:25.136Z,11.25
2018-10-19T09:24:25.154Z,11.25
2018-10-19T09:25:25.177Z,11.25
2018-10-19T09:26:25.199Z,11.25
2018-10-19T09:27:25.213Z,16.88
2018-10-19T09:28:25.226Z,16.88
2018-10-19T09:29:25.264Z,16.88
2018-10-19T09:30:25.276Z,22.50
2018-10-19T09:31:25.311Z,22.50
2018-10-19T09:32:25.318Z,22.50
2018-10-19T09:33:25.385Z,22.50
2018-10-19T09:34:25.390Z,22.50
2018-10-19T09:35:25.510Z,11.25
2018-10-19T09:36:25.710Z,16.88
2018-10-19T09:37:25.424Z,16.88
2018-10-19T09:38:25.490Z,16.88
2018-10-19T09:39:25.457Z,22.50
2018-10-19T09:40:25.477Z,22.50
2018-10-19T09:41:25.604Z,22.50
2018-10-19T09:42:25.527Z,22.50
2018-10-19T09:43:25.542Z,16.88
2018-10-19T09:44:25.556Z,16.88
2018-10-19T09:45:25.581Z,16.88
2018-10-19T09:46:25.603Z,16.88
2018-10-19T09:47:25.631Z,16.88
2018-10-19T09:48:25.638Z,16.88
2018-10-19T09:49:25.656Z,16.88
2018-10-19T09:50:25.699Z,16.88
2018-10-19T09:51:25.697Z,16.88
2018-10-19T09:52:25.726Z,16.88
2018-10-19T09:53:25.738Z,16.88
2018-10-19T09:54:25.764Z,16.88
2018-10-19T09:55:25.778Z,16.88
2018-10-19T09:56:25.801Z,16.88
2018-10-19T09:57:25.831Z,16.88
2018-10-19T09:59:25.865Z,16.88
2018-10-19T10:00:25.881Z,16.88
2018-10-19T10:01:25.901Z,16.88
2018-10-19T10:02:25.929Z,16.88
2018-10-19T10:03:25.941Z,16.88
2018-10-19T10:04:25.965Z,16.88
2018-10-19T10:05:25.984Z,16.88
2018-10-19T10:06:25.999Z,16.88
2018-10-19T10:07:26.026Z,16.88
2018-10-19T10:09:26.085Z,16.88
2018-10-19T10:10:26.089Z,16.88
2018-10-19T10:11:26.107Z,16.88
2018-10-19T10:12:26.121Z,16.88
2018-10-19T10:13:26.147Z,16.88
2018-10-19T10:14:26.173Z,16.88
2018-10-19T10:15:26.331Z,16.88
2018-10-19T10:16:26.200Z,16.88
2018-10-19T10:17:26.231Z,16.88
2018-10-19T10:18:26.258Z,16.88
2018-10-19T10:19:26.270Z,16.88
2018-10-19T10:20:26.299Z,16.88
2018-10-19T10:21:26.318Z,16.88
2018-10-19T10:22:26.333Z,16.88
2018-10-19T10:23:26.357Z,22.50
2018-10-19T10:24:26.370Z,22.50
2018-10-19T10:25:26.391Z,22.50
2018-10-19T10:26:26.425Z,22.50
2018-10-19T10:27:26.468Z,16.88
2018-10-19T10:28:26.465Z,22.50
2018-10-19T10:29:26.484Z,22.50
2018-10-19T10:30:26.509Z,22.50
2018-10-19T10:31:26.516Z,22.50
2018-10-19T10:32:26.591Z,22.50
2018-10-19T10:33:26.574Z,22.50
2018-10-19T10:34:26.582Z,28.13
2018-10-19T10:35:26.606Z,28.13
2018-10-19T10:36:26.630Z,33.75
2018-10-19T10:37:26.648Z,28.13
2018-10-19T10:38:26.669Z,28.13
2018-10-19T10:39:26.690Z,28.13
2018-10-19T10:40:26.715Z,39.38
2018-10-19T10:41:26.733Z,39.38
2018-10-19T10:42:26.756Z,39.38
2018-10-19T10:43:26.772Z,39.38
2018-10-19T10:44:26.800Z,33.75
2018-10-19T10:45:26.820Z,33.75
2018-10-19T10:46:26.842Z,33.75
2018-10-19T10:47:26.863Z,33.75
2018-10-19T10:48:26.886Z,39.38
2018-10-19T10:49:26.904Z,39.38
2018-10-19T10:50:26.933Z,39.38
2018-10-19T10:51:26.949Z,45.00
2018-10-19T10:52:26.979Z,56.25
2018-10-19T10:53:26.988Z,73.13
2018-10-19T10:54:27.006Z,95.63
2018-10-19T10:55:27.036Z,112.50
2018-10-19T10:56:27.059Z,106.88
2018-10-19T10:57:27.081Z,78.75
2018-10-19T10:58:27.111Z,67.50
2018-10-19T10:59:27.126Z,73.13
2018-10-19T11:00:27.189Z,78.75
2018-10-19T11:01:27.184Z,78.75
2018-10-19T11:02:27.206Z,78.75
2018-10-19T11:03:27.208Z,67.50
2018-10-19T11:04:27.238Z,67.50
2018-10-19T11:05:27.262Z,67.50
2018-10-19T11:06:27.371Z,78.75
2018-10-19T11:07:27.466Z,95.63
2018-10-19T11:08:27.343Z,112.50
2018-10-19T11:09:27.368Z,112.50
2018-10-19T11:11:27.432Z,95.63
2018-10-19T11:12:27.438Z,95.63
2018-10-19T11:13:27.497Z,84.38
2018-10-19T11:14:27.481Z,78.75
2018-10-19T11:15:27.507Z,73.13
2018-10-19T11:16:27.539Z,73.13
2018-10-19T11:18:27.591Z,50.63
2018-10-19T11:19:27.632Z,50.63
2018-10-19T11:20:27.638Z,56.25
2018-10-19T11:21:27.667Z,50.63
2018-10-19T11:22:27.691Z,50.63
2018-10-19T11:23:27.702Z,45.00
2018-10-19T11:24:27.768Z,39.38
2018-10-19T11:25:27.759Z,39.38
2018-10-19T11:26:27.796Z,39.38
2018-10-19T11:27:27.808Z,39.38
2018-10-19T11:28:27.832Z,39.38
2018-10-19T11:29:27.870Z,39.38
2018-10-19T11:30:27.888Z,39.38
2018-10-19T11:31:27.908Z,39.38
2018-10-19T11:32:27.933Z,39.38
2018-10-19T11:33:27.943Z,39.38
2018-10-19T11:34:27.983Z,39.38
2018-10-19T11:35:28.024Z,33.75
2018-10-19T11:36:28.028Z,33.75
2018-10-19T11:37:28.110Z,33.75
2018-10-19T11:38:28.071Z,33.75
2018-10-19T11:39:28.089Z,33.75
2018-10-19T11:40:28.142Z,33.75
2018-10-19T11:41:28.138Z,33.75
2018-10-19T11:42:28.166Z,33.75
2018-10-19T11:43:28.203Z,33.75
2018-10-19T11:44:28.213Z,28.13
2018-10-19T11:45:28.231Z,28.13
2018-10-19T11:46:28.264Z,28.13
2018-10-19T11:47:28.293Z,28.13
2018-10-19T11:48:28.332Z,28.13
2018-10-19T11:49:28.340Z,22.50
2018-10-19T11:50:28.353Z,22.50
2018-10-19T11:51:28.375Z,22.50
2018-10-19T11:52:28.396Z,16.88
2018-10-19T11:53:28.422Z,16.88
2018-10-19T11:54:28.449Z,16.88
2018-10-19T11:55:28.471Z,16.88
2018-10-19T11:56:28.515Z,16.88
2018-10-19T11:57:28.511Z,16.88
2018-10-19T11:58:28.547Z,16.88
2018-10-19T11:59:28.662Z,16.88
2018-10-19T12:00:28.587Z,16.88
2018-10-19T12:01:28.619Z,16.88
2018-10-19T12:02:28.633Z,16.88
2018-10-19T12:03:28.670Z,16.88
2018-10-19T12:04:28.679Z,16.88
2018-10-19T12:05:28.708Z,16.88
2018-10-19T12:06:28.724Z,22.50
2018-10-19T12:07:28.751Z,22.50
2018-10-19T12:08:28.777Z,16.88
2018-10-19T12:09:28.821Z,16.88
2018-10-19T12:10:28.881Z,16.88
2018-10-19T12:11:28.849Z,16.88
2018-10-19T12:12:28.870Z,16.88
2018-10-19T12:13:28.893Z,16.88
2018-10-19T12:14:28.911Z,16.88
2018-10-19T12:15:29.020Z,16.88
2018-10-19T12:16:29.030Z,16.88
2018-10-19T12:17:28.992Z,22.50
2018-10-19T12:18:29.006Z,22.50
2018-10-19T12:19:29.022Z,22.50
2018-10-19T12:20:29.039Z,22.50
2018-10-19T12:21:29.174Z,22.50
2018-10-19T12:22:29.093Z,22.50
2018-10-19T12:23:29.110Z,22.50
2018-10-19T12:24:29.142Z,22.50
2018-10-19T12:25:29.157Z,22.50
2018-10-19T12:26:29.183Z,22.50
2018-10-19T12:27:29.227Z,22.50
2018-10-19T12:28:29.233Z,22.50
2018-10-19T12:29:29.260Z,22.50
2018-10-19T12:30:29.268Z,22.50
2018-10-19T12:31:29.296Z,22.50
2018-10-19T12:32:29.331Z,16.88
2018-10-19T12:33:29.353Z,22.50
2018-10-19T12:34:29.396Z,22.50
2018-10-19T12:35:29.449Z,22.50
2018-10-19T12:36:29.433Z,22.50
2018-10-19T12:37:29.446Z,22.50
2018-10-19T12:38:29.467Z,22.50
2018-10-19T12:39:29.487Z,22.50
2018-10-19T12:40:29.542Z,22.50
2018-10-19T12:41:29.532Z,22.50
2018-10-19T12:42:29.556Z,22.50
2018-10-19T12:43:29.577Z,22.50
2018-10-19T12:44:29.607Z,22.50
2018-10-19T12:45:29.624Z,22.50
2018-10-19T12:46:29.650Z,22.50
2018-10-19T12:47:29.809Z,22.50
2018-10-19T12:48:29.693Z,22.50
2018-10-19T12:49:29.720Z,16.88
2018-10-19T12:50:29.756Z,16.88
2018-10-19T12:51:29.773Z,16.88
2018-10-19T12:52:29.789Z,16.88
2018-10-19T12:53:29.826Z,16.88
2018-10-19T12:54:29.967Z,16.88
2018-10-19T12:55:29.876Z,16.88
2018-10-19T12:56:29.954Z,16.88
2018-10-19T12:57:30.015Z,16.88
2018-10-19T12:58:30.021Z,16.88
2018-10-19T12:59:29.984Z,16.88
2018-10-19T13:00:30.036Z,16.88
2018-10-19T13:01:30.019Z,16.88
2018-10-19T13:02:30.050Z,16.88
2018-10-19T13:03:30.189Z,16.88
2018-10-19T13:04:30.106Z,16.88
2018-10-19T13:05:30.119Z,16.88
2018-10-19T13:06:30.153Z,16.88
2018-10-19T13:07:30.235Z,11.25
2018-10-19T13:08:30.178Z,11.25
2018-10-19T13:09:30.275Z,11.25
2018-10-19T13:10:30.212Z,11.25
2018-10-19T13:11:30.234Z,11.25
2018-10-19T13:12:30.258Z,11.25
2018-10-19T13:13:30.287Z,11.25
2018-10-19T13:14:30.302Z,11.25
2018-10-19T13:15:30.334Z,11.25
2018-10-19T13:16:30.349Z,11.25
2018-10-19T13:17:30.380Z,11.25
2018-10-19T13:18:30.398Z,11.25
2018-10-19T13:19:30.426Z,11.25
2018-10-19T13:20:30.495Z,11.25